sensor_id;sensor_type;location;lat;lon;timestamp;temperature;humidity
2409;DHT22;8463;48.094;7.970;2023-07-29T00:02:19;18.00;1.00
2409;DHT22;8463;48.094;7.970;2023-07-29T00:04:44;17.90;1.00
2409;DHT22;8463;48.094;7.970;2023-07-29T00:07:10;17.90;1.00
2409;DHT22;8463;48.094;7.970;2023-07-29T00:09:37;17.90;1.00
2409;DHT22;8463;48.094;7.970;2023-07-29T00:12:03;17.80;1.00
2409;DHT22;8463;48.094;7.970;2023-07-29T00:14:29;17.80;1.00
2409;DHT22;8463;48.094;7.970;2023-07-29T00:16:55;17.80;1.00
2409;DHT22;8463;48.094;7.970;2023-07-29T00:19:20;17.80;1.00
2409;DHT22;8463;48.094;7.970;2023-07-29T00:21:54;17.80;1.00
2409;DHT22;8463;48.094;7.970;2023-07-29T00:24:20;17.80;1.00
2409;DHT22;8463;48.094;7.970;2023-07-29T00:26:45;17.80;1.00
2409;DHT22;8463;48.094;7.970;2023-07-29T00:29:11;17.80;1.00
2409;DHT22;8463;48.094;7.970;2023-07-29T00:31:36;17.80;1.00
2409;DHT22;8463;48.094;7.970;2023-07-29T00:34:02;17.80;1.00
2409;DHT22;8463;48.094;7.970;2023-07-29T00:36:28;17.80;1.00
2409;DHT22;8463;48.094;7.970;2023-07-29T00:38:53;17.80;1.00
2409;DHT22;8463;48.094;7.970;2023-07-29T00:41:24;17.80;1.00
2409;DHT22;8463;48.094;7.970;2023-07-29T00:43:53;17.80;1.00
2409;DHT22;8463;48.094;7.970;2023-07-29T00:46:18;17.70;1.00
2409;DHT22;8463;48.094;7.970;2023-07-29T00:48:44;17.60;1.00
2409;DHT22;8463;48.094;7.970;2023-07-29T00:51:10;17.60;1.00
2409;DHT22;8463;48.094;7.970;2023-07-29T00:53:36;17.60;1.00
2409;DHT22;8463;48.094;7.970;2023-07-29T00:56:01;17.60;1.00
2409;DHT22;8463;48.094;7.970;2023-07-29T00:58:27;17.60;1.00
2409;DHT22;8463;48.094;7.970;2023-07-29T01:00:53;17.60;1.00
2409;DHT22;8463;48.094;7.970;2023-07-29T01:03:20;17.60;1.00
2409;DHT22;8463;48.094;7.970;2023-07-29T01:06:24;17.60;1.00
2409;DHT22;8463;48.094;7.970;2023-07-29T01:09:04;17.60;1.00
2409;DHT22;8463;48.094;7.970;2023-07-29T01:14:46;17.60;1.00
2409;DHT22;8463;48.094;7.970;2023-07-29T01:17:23;17.60;1.00
2409;DHT22;8463;48.094;7.970;2023-07-29T01:22:34;17.60;1.00
2409;DHT22;8463;48.094;7.970;2023-07-29T01:25:00;17.60;1.00
2409;DHT22;8463;48.094;7.970;2023-07-29T01:27:26;17.60;1.00
2409;DHT22;8463;48.094;7.970;2023-07-29T01:29:52;17.50;1.00
2409;DHT22;8463;48.094;7.970;2023-07-29T01:32:35;17.60;1.00
2409;DHT22;8463;48.094;7.970;2023-07-29T01:35:24;17.60;1.00
2409;DHT22;8463;48.094;7.970;2023-07-29T01:38:01;17.50;1.00
2409;DHT22;8463;48.094;7.970;2023-07-29T01:40:30;17.50;1.00
2409;DHT22;8463;48.094;7.970;2023-07-29T01:42:58;17.50;1.00
2409;DHT22;8463;48.094;7.970;2023-07-29T01:45:29;17.50;1.00
2409;DHT22;8463;48.094;7.970;2023-07-29T01:47:57;17.50;1.00
2409;DHT22;8463;48.094;7.970;2023-07-29T01:50:22;17.50;1.00
2409;DHT22;8463;48.094;7.970;2023-07-29T01:52:48;17.40;1.00
2409;DHT22;8463;48.094;7.970;2023-07-29T01:55:14;17.50;1.00
2409;DHT22;8463;48.094;7.970;2023-07-29T01:57:39;17.50;1.00
2409;DHT22;8463;48.094;7.970;2023-07-29T02:00:06;17.50;1.00
2409;DHT22;8463;48.094;7.970;2023-07-29T02:02:32;17.50;1.00
2409;DHT22;8463;48.094;7.970;2023-07-29T02:04:57;17.50;1.00
2409;DHT22;8463;48.094;7.970;2023-07-29T02:07:23;17.50;1.00
2409;DHT22;8463;48.094;7.970;2023-07-29T02:09:51;17.50;1.00
2409;DHT22;8463;48.094;7.970;2023-07-29T02:12:17;17.50;1.00
2409;DHT22;8463;48.094;7.970;2023-07-29T02:14:43;17.60;1.00
2409;DHT22;8463;48.094;7.970;2023-07-29T02:17:08;17.60;1.00
2409;DHT22;8463;48.094;7.970;2023-07-29T02:19:37;17.60;1.00
2409;DHT22;8463;48.094;7.970;2023-07-29T02:22:02;17.60;1.00
2409;DHT22;8463;48.094;7.970;2023-07-29T02:24:29;17.60;1.00
2409;DHT22;8463;48.094;7.970;2023-07-29T02:26:54;17.60;1.00
2409;DHT22;8463;48.094;7.970;2023-07-29T02:29:20;17.60;1.00
2409;DHT22;8463;48.094;7.970;2023-07-29T02:31:47;17.70;1.00
2409;DHT22;8463;48.094;7.970;2023-07-29T02:34:13;17.70;1.00
2409;DHT22;8463;48.094;7.970;2023-07-29T02:36:39;17.70;1.00
2409;DHT22;8463;48.094;7.970;2023-07-29T02:39:05;17.80;1.00
2409;DHT22;8463;48.094;7.970;2023-07-29T02:41:31;17.80;1.00
2409;DHT22;8463;48.094;7.970;2023-07-29T02:43:57;17.70;1.00
2409;DHT22;8463;48.094;7.970;2023-07-29T02:46:22;17.70;1.00
2409;DHT22;8463;48.094;7.970;2023-07-29T02:48:50;17.80;1.00
2409;DHT22;8463;48.094;7.970;2023-07-29T02:51:18;17.80;1.00
2409;DHT22;8463;48.094;7.970;2023-07-29T02:53:43;17.80;1.00
2409;DHT22;8463;48.094;7.970;2023-07-29T02:56:09;17.70;1.00
2409;DHT22;8463;48.094;7.970;2023-07-29T02:58:39;17.70;1.00
2409;DHT22;8463;48.094;7.970;2023-07-29T03:01:06;17.70;1.00
2409;DHT22;8463;48.094;7.970;2023-07-29T03:03:31;17.80;1.00
2409;DHT22;8463;48.094;7.970;2023-07-29T03:06:07;17.80;1.00
2409;DHT22;8463;48.094;7.970;2023-07-29T03:08:34;17.80;1.00
2409;DHT22;8463;48.094;7.970;2023-07-29T03:11:06;17.80;1.00
2409;DHT22;8463;48.094;7.970;2023-07-29T03:13:32;17.80;1.00
2409;DHT22;8463;48.094;7.970;2023-07-29T03:16:15;17.80;1.00
2409;DHT22;8463;48.094;7.970;2023-07-29T03:18:42;17.80;1.00
2409;DHT22;8463;48.094;7.970;2023-07-29T03:21:10;17.80;1.00
2409;DHT22;8463;48.094;7.970;2023-07-29T03:23:37;17.80;1.00
2409;DHT22;8463;48.094;7.970;2023-07-29T03:26:03;17.90;1.00
2409;DHT22;8463;48.094;7.970;2023-07-29T03:28:37;17.90;1.00
2409;DHT22;8463;48.094;7.970;2023-07-29T03:31:03;17.90;1.00
2409;DHT22;8463;48.094;7.970;2023-07-29T03:33:31;17.90;1.00
2409;DHT22;8463;48.094;7.970;2023-07-29T03:35:58;17.80;1.00
2409;DHT22;8463;48.094;7.970;2023-07-29T03:38:24;17.80;1.00
2409;DHT22;8463;48.094;7.970;2023-07-29T03:40:53;17.80;1.00
2409;DHT22;8463;48.094;7.970;2023-07-29T03:43:19;17.80;1.00
2409;DHT22;8463;48.094;7.970;2023-07-29T03:45:47;17.80;1.00
2409;DHT22;8463;48.094;7.970;2023-07-29T03:48:13;17.80;1.00
2409;DHT22;8463;48.094;7.970;2023-07-29T03:50:39;17.80;1.00
2409;DHT22;8463;48.094;7.970;2023-07-29T03:53:04;17.80;1.00
2409;DHT22;8463;48.094;7.970;2023-07-29T03:55:31;17.80;1.00
2409;DHT22;8463;48.094;7.970;2023-07-29T03:57:58;17.70;1.00
2409;DHT22;8463;48.094;7.970;2023-07-29T04:00:24;17.70;1.00
2409;DHT22;8463;48.094;7.970;2023-07-29T04:02:50;17.70;1.00
2409;DHT22;8463;48.094;7.970;2023-07-29T04:05:16;17.70;1.00
2409;DHT22;8463;48.094;7.970;2023-07-29T04:07:42;17.70;1.00
2409;DHT22;8463;48.094;7.970;2023-07-29T04:10:08;17.70;1.00
2409;DHT22;8463;48.094;7.970;2023-07-29T04:12:34;17.70;1.00
2409;DHT22;8463;48.094;7.970;2023-07-29T04:15:00;17.70;1.00
2409;DHT22;8463;48.094;7.970;2023-07-29T04:17:25;17.70;1.00
2409;DHT22;8463;48.094;7.970;2023-07-29T04:19:51;17.70;1.00
2409;DHT22;8463;48.094;7.970;2023-07-29T04:22:16;17.80;1.00
2409;DHT22;8463;48.094;7.970;2023-07-29T04:24:42;17.80;1.00
2409;DHT22;8463;48.094;7.970;2023-07-29T04:27:11;17.80;1.00
2409;DHT22;8463;48.094;7.970;2023-07-29T04:29:36;18.50;1.00
2409;DHT22;8463;48.094;7.970;2023-07-29T04:32:03;17.80;1.00
2409;DHT22;8463;48.094;7.970;2023-07-29T04:34:28;17.80;1.00
2409;DHT22;8463;48.094;7.970;2023-07-29T04:36:54;17.80;1.00
2409;DHT22;8463;48.094;7.970;2023-07-29T04:39:20;17.80;1.00
2409;DHT22;8463;48.094;7.970;2023-07-29T04:41:45;17.80;1.00
2409;DHT22;8463;48.094;7.970;2023-07-29T04:44:11;17.70;1.00
2409;DHT22;8463;48.094;7.970;2023-07-29T04:46:37;17.70;1.00
2409;DHT22;8463;48.094;7.970;2023-07-29T04:49:04;17.70;1.00
2409;DHT22;8463;48.094;7.970;2023-07-29T04:51:30;17.80;1.00
2409;DHT22;8463;48.094;7.970;2023-07-29T04:53:59;17.80;1.00
2409;DHT22;8463;48.094;7.970;2023-07-29T04:56:25;17.80;1.00
2409;DHT22;8463;48.094;7.970;2023-07-29T04:58:51;17.80;1.00
2409;DHT22;8463;48.094;7.970;2023-07-29T05:01:19;17.90;1.00
2409;DHT22;8463;48.094;7.970;2023-07-29T05:03:45;17.90;1.00
2409;DHT22;8463;48.094;7.970;2023-07-29T05:06:11;17.90;1.00
2409;DHT22;8463;48.094;7.970;2023-07-29T05:08:36;17.90;1.00
2409;DHT22;8463;48.094;7.970;2023-07-29T05:11:02;17.90;1.00
2409;DHT22;8463;48.094;7.970;2023-07-29T05:13:28;17.90;1.00
2409;DHT22;8463;48.094;7.970;2023-07-29T05:15:53;17.90;1.00
2409;DHT22;8463;48.094;7.970;2023-07-29T05:18:20;18.00;1.00
2409;DHT22;8463;48.094;7.970;2023-07-29T05:20:47;18.00;1.00
2409;DHT22;8463;48.094;7.970;2023-07-29T05:23:13;18.00;1.00
2409;DHT22;8463;48.094;7.970;2023-07-29T05:25:38;18.00;1.00
2409;DHT22;8463;48.094;7.970;2023-07-29T05:28:04;18.00;1.00
2409;DHT22;8463;48.094;7.970;2023-07-29T05:30:30;18.00;1.00
2409;DHT22;8463;48.094;7.970;2023-07-29T05:33:05;18.00;1.00
2409;DHT22;8463;48.094;7.970;2023-07-29T05:35:39;18.00;1.00
2409;DHT22;8463;48.094;7.970;2023-07-29T05:38:04;18.00;1.00
2409;DHT22;8463;48.094;7.970;2023-07-29T05:40:32;18.00;1.00
2409;DHT22;8463;48.094;7.970;2023-07-29T05:42:59;18.00;1.00
2409;DHT22;8463;48.094;7.970;2023-07-29T05:45:24;18.00;1.00
2409;DHT22;8463;48.094;7.970;2023-07-29T05:47:50;18.00;1.00
2409;DHT22;8463;48.094;7.970;2023-07-29T05:50:18;18.00;1.00
2409;DHT22;8463;48.094;7.970;2023-07-29T05:52:44;18.10;1.00
2409;DHT22;8463;48.094;7.970;2023-07-29T05:55:09;18.10;1.00
2409;DHT22;8463;48.094;7.970;2023-07-29T05:57:35;18.10;1.00
2409;DHT22;8463;48.094;7.970;2023-07-29T06:00:01;18.20;1.00
2409;DHT22;8463;48.094;7.970;2023-07-29T06:02:26;18.20;1.00
2409;DHT22;8463;48.094;7.970;2023-07-29T06:04:52;18.30;1.00
2409;DHT22;8463;48.094;7.970;2023-07-29T06:07:17;18.40;1.00
2409;DHT22;8463;48.094;7.970;2023-07-29T06:09:43;18.40;1.00
2409;DHT22;8463;48.094;7.970;2023-07-29T06:12:09;18.50;1.00
2409;DHT22;8463;48.094;7.970;2023-07-29T06:14:34;18.50;1.00
2409;DHT22;8463;48.094;7.970;2023-07-29T06:17:00;18.60;1.00
2409;DHT22;8463;48.094;7.970;2023-07-29T06:19:28;18.60;1.00
2409;DHT22;8463;48.094;7.970;2023-07-29T06:21:56;18.70;1.00
2409;DHT22;8463;48.094;7.970;2023-07-29T06:24:22;18.60;1.00
2409;DHT22;8463;48.094;7.970;2023-07-29T06:26:48;18.70;1.00
2409;DHT22;8463;48.094;7.970;2023-07-29T06:29:14;18.70;1.00
2409;DHT22;8463;48.094;7.970;2023-07-29T06:31:43;18.70;1.00
2409;DHT22;8463;48.094;7.970;2023-07-29T06:34:09;18.80;1.00
2409;DHT22;8463;48.094;7.970;2023-07-29T06:36:35;18.80;1.00
2409;DHT22;8463;48.094;7.970;2023-07-29T06:39:01;18.70;1.00
2409;DHT22;8463;48.094;7.970;2023-07-29T06:41:26;18.70;1.00
2409;DHT22;8463;48.094;7.970;2023-07-29T06:43:52;18.70;1.00
2409;DHT22;8463;48.094;7.970;2023-07-29T06:46:18;18.70;1.00
2409;DHT22;8463;48.094;7.970;2023-07-29T06:48:46;18.70;1.00
2409;DHT22;8463;48.094;7.970;2023-07-29T06:51:11;18.70;1.00
2409;DHT22;8463;48.094;7.970;2023-07-29T06:53:38;18.70;1.00
2409;DHT22;8463;48.094;7.970;2023-07-29T06:56:06;18.70;1.00
2409;DHT22;8463;48.094;7.970;2023-07-29T06:58:34;18.70;1.00
2409;DHT22;8463;48.094;7.970;2023-07-29T07:01:00;18.80;1.00
2409;DHT22;8463;48.094;7.970;2023-07-29T07:03:26;18.80;1.00
2409;DHT22;8463;48.094;7.970;2023-07-29T07:06:00;18.80;1.00
2409;DHT22;8463;48.094;7.970;2023-07-29T07:08:25;18.90;1.00
2409;DHT22;8463;48.094;7.970;2023-07-29T07:10:51;19.00;1.00
2409;DHT22;8463;48.094;7.970;2023-07-29T07:13:17;19.10;1.00
2409;DHT22;8463;48.094;7.970;2023-07-29T07:15:48;19.40;1.00
2409;DHT22;8463;48.094;7.970;2023-07-29T07:18:14;19.70;1.00
2409;DHT22;8463;48.094;7.970;2023-07-29T07:20:40;19.90;1.00
2409;DHT22;8463;48.094;7.970;2023-07-29T07:23:06;20.10;1.00
2409;DHT22;8463;48.094;7.970;2023-07-29T07:25:36;20.20;1.00
2409;DHT22;8463;48.094;7.970;2023-07-29T07:28:01;20.20;1.00
2409;DHT22;8463;48.094;7.970;2023-07-29T07:30:27;20.20;1.00
2409;DHT22;8463;48.094;7.970;2023-07-29T07:32:52;20.20;1.00
2409;DHT22;8463;48.094;7.970;2023-07-29T07:35:18;20.40;1.00
2409;DHT22;8463;48.094;7.970;2023-07-29T07:37:44;20.40;1.00
2409;DHT22;8463;48.094;7.970;2023-07-29T07:40:14;20.50;1.00
2409;DHT22;8463;48.094;7.970;2023-07-29T07:42:39;20.70;1.00
2409;DHT22;8463;48.094;7.970;2023-07-29T07:45:05;20.90;1.00
2409;DHT22;8463;48.094;7.970;2023-07-29T07:47:31;20.90;1.00
2409;DHT22;8463;48.094;7.970;2023-07-29T07:49:56;20.90;1.00
2409;DHT22;8463;48.094;7.970;2023-07-29T07:52:22;20.80;1.00
2409;DHT22;8463;48.094;7.970;2023-07-29T07:54:54;20.80;1.00
2409;DHT22;8463;48.094;7.970;2023-07-29T07:57:28;20.80;1.00
2409;DHT22;8463;48.094;7.970;2023-07-29T07:59:54;20.90;1.00
2409;DHT22;8463;48.094;7.970;2023-07-29T08:02:19;20.90;1.00
2409;DHT22;8463;48.094;7.970;2023-07-29T08:04:45;20.90;1.00
2409;DHT22;8463;48.094;7.970;2023-07-29T08:07:13;20.90;1.00
2409;DHT22;8463;48.094;7.970;2023-07-29T08:09:39;20.90;1.00
2409;DHT22;8463;48.094;7.970;2023-07-29T08:12:05;21.00;1.00
2409;DHT22;8463;48.094;7.970;2023-07-29T08:14:31;21.00;1.00
2409;DHT22;8463;48.094;7.970;2023-07-29T08:16:57;21.10;1.00
2409;DHT22;8463;48.094;7.970;2023-07-29T08:19:23;21.20;1.00
2409;DHT22;8463;48.094;7.970;2023-07-29T08:21:48;21.20;1.00
2409;DHT22;8463;48.094;7.970;2023-07-29T08:24:17;21.20;1.00
2409;DHT22;8463;48.094;7.970;2023-07-29T08:26:43;21.20;1.00
2409;DHT22;8463;48.094;7.970;2023-07-29T08:29:08;21.30;1.00
2409;DHT22;8463;48.094;7.970;2023-07-29T08:31:34;21.30;1.00
2409;DHT22;8463;48.094;7.970;2023-07-29T08:34:00;21.30;1.00
2409;DHT22;8463;48.094;7.970;2023-07-29T08:36:29;21.20;1.00
2409;DHT22;8463;48.094;7.970;2023-07-29T08:38:57;21.20;1.00
2409;DHT22;8463;48.094;7.970;2023-07-29T08:41:31;21.20;1.00
2409;DHT22;8463;48.094;7.970;2023-07-29T08:44:10;21.20;1.00
2409;DHT22;8463;48.094;7.970;2023-07-29T08:46:38;21.20;1.00
2409;DHT22;8463;48.094;7.970;2023-07-29T08:49:05;21.30;1.00
2409;DHT22;8463;48.094;7.970;2023-07-29T08:51:33;21.40;1.00
2409;DHT22;8463;48.094;7.970;2023-07-29T08:54:00;21.60;1.00
2409;DHT22;8463;48.094;7.970;2023-07-29T08:56:27;22.00;1.00
2409;DHT22;8463;48.094;7.970;2023-07-29T08:58:56;22.30;1.00
2409;DHT22;8463;48.094;7.970;2023-07-29T09:01:21;22.50;1.00
2409;DHT22;8463;48.094;7.970;2023-07-29T09:03:47;22.70;1.00
2409;DHT22;8463;48.094;7.970;2023-07-29T09:06:16;23.00;1.00
2409;DHT22;8463;48.094;7.970;2023-07-29T09:08:44;23.00;1.00
2409;DHT22;8463;48.094;7.970;2023-07-29T09:11:13;22.90;1.00
2409;DHT22;8463;48.094;7.970;2023-07-29T09:13:39;22.70;1.00
2409;DHT22;8463;48.094;7.970;2023-07-29T09:16:05;22.60;1.00
2409;DHT22;8463;48.094;7.970;2023-07-29T09:18:32;22.60;1.00
2409;DHT22;8463;48.094;7.970;2023-07-29T09:20:59;22.50;1.00
2409;DHT22;8463;48.094;7.970;2023-07-29T09:23:26;22.40;1.00
2409;DHT22;8463;48.094;7.970;2023-07-29T09:26:04;22.40;1.00
2409;DHT22;8463;48.094;7.970;2023-07-29T09:28:34;22.40;1.00
2409;DHT22;8463;48.094;7.970;2023-07-29T09:31:00;22.40;1.00
2409;DHT22;8463;48.094;7.970;2023-07-29T09:33:26;22.40;1.00
2409;DHT22;8463;48.094;7.970;2023-07-29T09:35:52;22.60;1.00
2409;DHT22;8463;48.094;7.970;2023-07-29T09:38:18;22.60;1.00
2409;DHT22;8463;48.094;7.970;2023-07-29T09:40:43;22.70;1.00
2409;DHT22;8463;48.094;7.970;2023-07-29T09:43:14;22.80;1.00
2409;DHT22;8463;48.094;7.970;2023-07-29T09:45:42;22.90;1.00
2409;DHT22;8463;48.094;7.970;2023-07-29T09:48:08;22.90;1.00
2409;DHT22;8463;48.094;7.970;2023-07-29T09:50:36;23.10;1.00
2409;DHT22;8463;48.094;7.970;2023-07-29T09:53:02;23.20;1.00
2409;DHT22;8463;48.094;7.970;2023-07-29T09:55:34;23.20;1.00
2409;DHT22;8463;48.094;7.970;2023-07-29T09:58:01;23.20;1.00
2409;DHT22;8463;48.094;7.970;2023-07-29T10:00:30;23.40;1.00
2409;DHT22;8463;48.094;7.970;2023-07-29T10:03:00;23.60;1.00
2409;DHT22;8463;48.094;7.970;2023-07-29T10:05:27;23.70;1.00
2409;DHT22;8463;48.094;7.970;2023-07-29T10:07:54;23.70;1.00
2409;DHT22;8463;48.094;7.970;2023-07-29T10:10:27;23.60;1.00
2409;DHT22;8463;48.094;7.970;2023-07-29T10:12:54;23.70;1.00
2409;DHT22;8463;48.094;7.970;2023-07-29T10:15:21;23.70;1.00
2409;DHT22;8463;48.094;7.970;2023-07-29T10:17:48;23.60;1.00
2409;DHT22;8463;48.094;7.970;2023-07-29T10:20:17;23.60;1.00
2409;DHT22;8463;48.094;7.970;2023-07-29T10:22:47;23.60;1.00
2409;DHT22;8463;48.094;7.970;2023-07-29T10:25:17;23.70;1.00
2409;DHT22;8463;48.094;7.970;2023-07-29T10:30:11;23.70;1.00
2409;DHT22;8463;48.094;7.970;2023-07-29T10:32:38;23.70;1.00
2409;DHT22;8463;48.094;7.970;2023-07-29T10:35:04;23.70;1.00
2409;DHT22;8463;48.094;7.970;2023-07-29T10:37:33;23.70;1.00
2409;DHT22;8463;48.094;7.970;2023-07-29T10:39:58;23.70;1.00
2409;DHT22;8463;48.094;7.970;2023-07-29T10:42:24;23.80;1.00
2409;DHT22;8463;48.094;7.970;2023-07-29T10:44:53;23.80;1.00
2409;DHT22;8463;48.094;7.970;2023-07-29T10:47:29;24.00;1.00
2409;DHT22;8463;48.094;7.970;2023-07-29T10:50:00;24.10;1.00
2409;DHT22;8463;48.094;7.970;2023-07-29T10:55:03;24.10;1.00
2409;DHT22;8463;48.094;7.970;2023-07-29T10:57:48;24.10;1.00
2409;DHT22;8463;48.094;7.970;2023-07-29T11:00:16;24.10;1.00
2409;DHT22;8463;48.094;7.970;2023-07-29T11:02:41;24.30;1.00
2409;DHT22;8463;48.094;7.970;2023-07-29T11:05:16;24.40;1.00
2409;DHT22;8463;48.094;7.970;2023-07-29T11:07:46;24.40;1.00
2409;DHT22;8463;48.094;7.970;2023-07-29T11:10:15;24.40;1.00
2409;DHT22;8463;48.094;7.970;2023-07-29T11:15:24;24.40;1.00
2409;DHT22;8463;48.094;7.970;2023-07-29T11:17:59;24.70;1.00
2409;DHT22;8463;48.094;7.970;2023-07-29T11:20:33;24.80;1.00
2409;DHT22;8463;48.094;7.970;2023-07-29T11:23:02;24.80;1.00
2409;DHT22;8463;48.094;7.970;2023-07-29T11:25:30;24.90;1.00
2409;DHT22;8463;48.094;7.970;2023-07-29T11:27:59;25.00;1.00
2409;DHT22;8463;48.094;7.970;2023-07-29T11:30:26;25.30;1.00
2409;DHT22;8463;48.094;7.970;2023-07-29T11:32:53;25.40;1.00
2409;DHT22;8463;48.094;7.970;2023-07-29T11:35:22;25.40;1.00
2409;DHT22;8463;48.094;7.970;2023-07-29T11:37:49;25.30;1.00
2409;DHT22;8463;48.094;7.970;2023-07-29T11:40:19;25.20;1.00
2409;DHT22;8463;48.094;7.970;2023-07-29T11:42:47;25.00;1.00
2409;DHT22;8463;48.094;7.970;2023-07-29T11:45:14;24.90;1.00
2409;DHT22;8463;48.094;7.970;2023-07-29T11:47:46;24.80;1.00
2409;DHT22;8463;48.094;7.970;2023-07-29T11:50:13;24.90;1.00
2409;DHT22;8463;48.094;7.970;2023-07-29T11:52:43;24.90;1.00
2409;DHT22;8463;48.094;7.970;2023-07-29T11:55:09;24.90;1.00
2409;DHT22;8463;48.094;7.970;2023-07-29T11:57:44;24.80;1.00
2409;DHT22;8463;48.094;7.970;2023-07-29T12:00:11;24.80;1.00
2409;DHT22;8463;48.094;7.970;2023-07-29T12:02:39;24.80;1.00
2409;DHT22;8463;48.094;7.970;2023-07-29T12:05:06;24.80;1.00
2409;DHT22;8463;48.094;7.970;2023-07-29T12:07:33;24.90;1.00
2409;DHT22;8463;48.094;7.970;2023-07-29T12:09:59;25.00;1.00
2409;DHT22;8463;48.094;7.970;2023-07-29T12:12:28;25.10;1.00
2409;DHT22;8463;48.094;7.970;2023-07-29T12:14:55;25.10;1.00
2409;DHT22;8463;48.094;7.970;2023-07-29T12:17:22;25.10;1.00
2409;DHT22;8463;48.094;7.970;2023-07-29T12:19:54;25.10;1.00
2409;DHT22;8463;48.094;7.970;2023-07-29T12:22:20;25.10;1.00
2409;DHT22;8463;48.094;7.970;2023-07-29T12:24:56;25.20;1.00
2409;DHT22;8463;48.094;7.970;2023-07-29T12:27:22;25.30;1.00
2409;DHT22;8463;48.094;7.970;2023-07-29T12:29:52;25.30;1.00
2409;DHT22;8463;48.094;7.970;2023-07-29T12:32:24;25.30;1.00
2409;DHT22;8463;48.094;7.970;2023-07-29T12:34:52;25.20;1.00
2409;DHT22;8463;48.094;7.970;2023-07-29T12:37:18;25.30;1.00
2409;DHT22;8463;48.094;7.970;2023-07-29T12:39:44;25.30;1.00
2409;DHT22;8463;48.094;7.970;2023-07-29T12:42:09;25.20;1.00
2409;DHT22;8463;48.094;7.970;2023-07-29T12:44:36;25.20;1.00
2409;DHT22;8463;48.094;7.970;2023-07-29T12:47:08;25.20;1.00
2409;DHT22;8463;48.094;7.970;2023-07-29T12:49:36;25.20;1.00
2409;DHT22;8463;48.094;7.970;2023-07-29T12:52:02;25.20;1.00
2409;DHT22;8463;48.094;7.970;2023-07-29T12:54:33;25.20;1.00
2409;DHT22;8463;48.094;7.970;2023-07-29T12:56:58;25.10;1.00
2409;DHT22;8463;48.094;7.970;2023-07-29T12:59:24;25.00;1.00
2409;DHT22;8463;48.094;7.970;2023-07-29T13:01:49;25.10;1.00
2409;DHT22;8463;48.094;7.970;2023-07-29T13:04:15;25.10;1.00
2409;DHT22;8463;48.094;7.970;2023-07-29T13:06:42;25.00;1.00
2409;DHT22;8463;48.094;7.970;2023-07-29T13:09:08;25.00;1.00
2409;DHT22;8463;48.094;7.970;2023-07-29T13:11:34;25.00;1.00
2409;DHT22;8463;48.094;7.970;2023-07-29T13:14:00;25.00;1.00
2409;DHT22;8463;48.094;7.970;2023-07-29T13:16:26;25.20;1.00
2409;DHT22;8463;48.094;7.970;2023-07-29T13:18:52;25.20;1.00
2409;DHT22;8463;48.094;7.970;2023-07-29T13:21:18;25.30;1.00
2409;DHT22;8463;48.094;7.970;2023-07-29T13:23:43;25.30;1.00
2409;DHT22;8463;48.094;7.970;2023-07-29T13:26:09;25.30;1.00
2409;DHT22;8463;48.094;7.970;2023-07-29T13:28:38;25.30;1.00
2409;DHT22;8463;48.094;7.970;2023-07-29T13:31:04;25.30;1.00
2409;DHT22;8463;48.094;7.970;2023-07-29T13:33:30;25.20;1.00
2409;DHT22;8463;48.094;7.970;2023-07-29T13:36:02;25.20;1.00
2409;DHT22;8463;48.094;7.970;2023-07-29T13:38:29;25.30;1.00
2409;DHT22;8463;48.094;7.970;2023-07-29T13:40:54;25.20;1.00
2409;DHT22;8463;48.094;7.970;2023-07-29T13:43:20;25.20;1.00
2409;DHT22;8463;48.094;7.970;2023-07-29T13:45:48;25.30;1.00
2409;DHT22;8463;48.094;7.970;2023-07-29T13:48:15;25.20;1.00
2409;DHT22;8463;48.094;7.970;2023-07-29T13:50:41;25.10;1.00
2409;DHT22;8463;48.094;7.970;2023-07-29T13:53:08;25.00;1.00
2409;DHT22;8463;48.094;7.970;2023-07-29T13:55:33;25.00;1.00
2409;DHT22;8463;48.094;7.970;2023-07-29T13:57:59;24.90;1.00
2409;DHT22;8463;48.094;7.970;2023-07-29T14:00:25;24.90;1.00
2409;DHT22;8463;48.094;7.970;2023-07-29T14:02:50;24.90;1.00
2409;DHT22;8463;48.094;7.970;2023-07-29T14:05:16;25.00;1.00
2409;DHT22;8463;48.094;7.970;2023-07-29T14:07:42;25.00;1.00
2409;DHT22;8463;48.094;7.970;2023-07-29T14:10:07;25.00;1.00
2409;DHT22;8463;48.094;7.970;2023-07-29T14:12:34;25.00;1.00
2409;DHT22;8463;48.094;7.970;2023-07-29T14:15:00;25.00;1.00
2409;DHT22;8463;48.094;7.970;2023-07-29T14:17:26;25.00;1.00
2409;DHT22;8463;48.094;7.970;2023-07-29T14:19:52;24.90;1.00
2409;DHT22;8463;48.094;7.970;2023-07-29T14:22:17;24.90;1.00
2409;DHT22;8463;48.094;7.970;2023-07-29T14:24:46;24.90;1.00
2409;DHT22;8463;48.094;7.970;2023-07-29T14:27:12;24.90;1.00
2409;DHT22;8463;48.094;7.970;2023-07-29T14:29:37;24.90;1.00
2409;DHT22;8463;48.094;7.970;2023-07-29T14:32:03;24.90;1.00
2409;DHT22;8463;48.094;7.970;2023-07-29T14:34:30;24.80;1.00
2409;DHT22;8463;48.094;7.970;2023-07-29T14:36:56;24.70;1.00
2409;DHT22;8463;48.094;7.970;2023-07-29T14:39:21;24.70;1.00
2409;DHT22;8463;48.094;7.970;2023-07-29T14:41:47;24.60;1.00
2409;DHT22;8463;48.094;7.970;2023-07-29T14:44:13;24.60;1.00
2409;DHT22;8463;48.094;7.970;2023-07-29T14:46:38;24.50;1.00
2409;DHT22;8463;48.094;7.970;2023-07-29T14:49:04;24.50;1.00
2409;DHT22;8463;48.094;7.970;2023-07-29T14:51:29;24.30;1.00
2409;DHT22;8463;48.094;7.970;2023-07-29T14:53:55;24.20;1.00
2409;DHT22;8463;48.094;7.970;2023-07-29T14:56:21;24.10;1.00
2409;DHT22;8463;48.094;7.970;2023-07-29T14:58:50;24.10;1.00
2409;DHT22;8463;48.094;7.970;2023-07-29T15:01:16;24.10;1.00
2409;DHT22;8463;48.094;7.970;2023-07-29T15:03:41;24.00;1.00
2409;DHT22;8463;48.094;7.970;2023-07-29T15:06:07;23.90;1.00
2409;DHT22;8463;48.094;7.970;2023-07-29T15:08:32;23.60;1.00
2409;DHT22;8463;48.094;7.970;2023-07-29T15:10:58;23.30;1.00
2409;DHT22;8463;48.094;7.970;2023-07-29T15:13:24;22.80;1.00
2409;DHT22;8463;48.094;7.970;2023-07-29T15:15:49;22.50;1.00
2409;DHT22;8463;48.094;7.970;2023-07-29T15:18:19;22.20;1.00
2409;DHT22;8463;48.094;7.970;2023-07-29T15:20:45;22.20;1.00
2409;DHT22;8463;48.094;7.970;2023-07-29T15:23:11;22.20;1.00
2409;DHT22;8463;48.094;7.970;2023-07-29T15:25:36;22.10;1.00
2409;DHT22;8463;48.094;7.970;2023-07-29T15:28:09;22.10;1.00
2409;DHT22;8463;48.094;7.970;2023-07-29T15:30:36;22.10;1.00
2409;DHT22;8463;48.094;7.970;2023-07-29T15:33:02;22.10;1.00
2409;DHT22;8463;48.094;7.970;2023-07-29T15:35:27;21.90;1.00
2409;DHT22;8463;48.094;7.970;2023-07-29T15:37:53;21.80;1.00
2409;DHT22;8463;48.094;7.970;2023-07-29T15:40:19;21.50;1.00
2409;DHT22;8463;48.094;7.970;2023-07-29T15:42:44;21.60;1.00
2409;DHT22;8463;48.094;7.970;2023-07-29T15:45:10;21.50;1.00
2409;DHT22;8463;48.094;7.970;2023-07-29T15:47:36;21.60;1.00
2409;DHT22;8463;48.094;7.970;2023-07-29T15:50:11;21.60;1.00
2409;DHT22;8463;48.094;7.970;2023-07-29T15:52:36;21.60;1.00
2409;DHT22;8463;48.094;7.970;2023-07-29T15:55:02;21.70;1.00
2409;DHT22;8463;48.094;7.970;2023-07-29T15:57:35;21.80;1.00
2409;DHT22;8463;48.094;7.970;2023-07-29T16:00:00;22.00;1.00
2409;DHT22;8463;48.094;7.970;2023-07-29T16:02:26;22.20;1.00
2409;DHT22;8463;48.094;7.970;2023-07-29T16:04:54;22.10;1.00
2409;DHT22;8463;48.094;7.970;2023-07-29T16:07:20;22.20;1.00
2409;DHT22;8463;48.094;7.970;2023-07-29T16:09:46;22.20;1.00
2409;DHT22;8463;48.094;7.970;2023-07-29T16:12:11;22.20;1.00
2409;DHT22;8463;48.094;7.970;2023-07-29T16:14:37;22.00;1.00
2409;DHT22;8463;48.094;7.970;2023-07-29T16:17:11;22.00;1.00
2409;DHT22;8463;48.094;7.970;2023-07-29T16:19:55;22.00;1.00
2409;DHT22;8463;48.094;7.970;2023-07-29T16:22:21;22.00;1.00
2409;DHT22;8463;48.094;7.970;2023-07-29T16:24:47;21.90;1.00
2409;DHT22;8463;48.094;7.970;2023-07-29T16:27:13;21.90;1.00
2409;DHT22;8463;48.094;7.970;2023-07-29T16:29:42;21.80;1.00
2409;DHT22;8463;48.094;7.970;2023-07-29T16:32:08;21.80;1.00